createdAt,value
2018-12-29T00:02:09.336Z,24.47
2018-12-29T00:04:38.021Z,35.20
2018-12-29T00:07:06.814Z,79.97
2018-12-29T00:09:35.559Z,93.77
2018-12-29T00:12:04.255Z,153.63
2018-12-29T00:14:33.047Z,67.77
2018-12-29T00:17:01.764Z,59.57
2018-12-29T00:19:30.487Z,62.10
2018-12-29T00:21:59.262Z,41.13
2018-12-29T00:24:27.976Z,35.77
2018-12-29T00:26:56.674Z,41.77
2018-12-29T00:29:25.446Z,25.27
2018-12-29T00:31:54.241Z,20.77
2018-12-29T00:34:22.994Z,32.50
2018-12-29T00:36:51.761Z,34.23
2018-12-29T00:39:20.520Z,15.73
2018-12-29T00:41:49.335Z,14.97
2018-12-29T00:44:18.032Z,19.70
2018-12-29T00:46:46.764Z,11.77
2018-12-29T00:49:15.497Z,13.67
2018-12-29T00:51:44.246Z,10.33
2018-12-29T00:54:12.943Z,8.67
2018-12-29T00:56:41.748Z,7.07
2018-12-29T00:59:10.476Z,8.33
2018-12-29T01:01:39.248Z,10.20
2018-12-29T01:04:07.974Z,9.57
2018-12-29T01:06:36.685Z,9.43
2018-12-29T01:09:06.652Z,8.67
2018-12-29T01:11:35.360Z,9.17
2018-12-29T01:14:04.077Z,10.10
2018-12-29T01:16:32.838Z,8.20
2018-12-29T01:19:01.594Z,9.60
2018-12-29T01:21:30.274Z,8.97
2018-12-29T01:23:58.972Z,8.10
2018-12-29T01:26:27.690Z,7.37
2018-12-29T01:28:56.408Z,8.17
2018-12-29T01:31:25.167Z,6.80
2018-12-29T01:33:53.935Z,7.33
2018-12-29T01:36:22.712Z,6.83
2018-12-29T01:38:51.448Z,7.77
2018-12-29T01:41:20.157Z,5.87
2018-12-29T01:43:48.904Z,6.70
2018-12-29T01:46:17.617Z,5.37
2018-12-29T01:48:46.375Z,5.43
2018-12-29T01:51:15.072Z,5.67
2018-12-29T01:53:46.864Z,5.90
2018-12-29T01:56:34.890Z,5.77
2018-12-29T01:59:03.608Z,5.43
2018-12-29T02:01:32.326Z,6.40
2018-12-29T02:04:01.026Z,6.10
2018-12-29T02:06:29.815Z,7.07
2018-12-29T02:08:58.528Z,7.30
2018-12-29T02:11:27.247Z,7.47
2018-12-29T02:13:55.979Z,6.57
2018-12-29T02:16:24.623Z,5.60
2018-12-29T02:18:53.341Z,5.43
2018-12-29T02:21:22.027Z,5.60
2018-12-29T02:23:50.792Z,6.23
2018-12-29T02:26:19.512Z,9.60
2018-12-29T02:28:48.234Z,7.40
2018-12-29T02:31:16.938Z,9.93
2018-12-29T02:33:45.685Z,6.50
2018-12-29T02:36:14.341Z,8.80
2018-12-29T02:38:43.037Z,7.80
2018-12-29T02:41:11.811Z,7.80
2018-12-29T02:43:40.601Z,11.97
2018-12-29T02:46:09.354Z,8.53
2018-12-29T02:48:38.380Z,7.80
2018-12-29T02:51:07.033Z,13.57
2018-12-29T02:53:35.850Z,8.27
2018-12-29T02:56:04.561Z,13.83
2018-12-29T02:58:33.322Z,9.73
2018-12-29T03:01:02.028Z,8.47
2018-12-29T03:03:30.727Z,10.83
2018-12-29T03:05:59.838Z,8.30
2018-12-29T03:08:28.575Z,13.67
2018-12-29T03:10:57.362Z,11.03
2018-12-29T03:13:26.074Z,10.53
2018-12-29T03:15:54.813Z,12.80
2018-12-29T03:18:23.602Z,13.50
2018-12-29T03:20:52.354Z,10.30
2018-12-29T03:23:21.096Z,11.10
2018-12-29T03:25:49.804Z,9.07
2018-12-29T03:28:18.511Z,9.03
2018-12-29T03:30:47.237Z,8.70
2018-12-29T03:33:15.997Z,9.97
2018-12-29T03:35:44.769Z,9.10
2018-12-29T03:38:13.477Z,12.97
2018-12-29T03:40:42.210Z,7.47
2018-12-29T03:43:10.917Z,7.53
2018-12-29T03:45:39.652Z,9.63
2018-12-29T03:48:08.404Z,7.03
2018-12-29T03:50:37.479Z,7.30
2018-12-29T03:53:06.374Z,6.30
2018-12-29T03:55:35.098Z,9.47
2018-12-29T03:58:03.819Z,10.67
2018-12-29T04:00:32.526Z,5.87
2018-12-29T04:03:01.265Z,9.90
2018-12-29T04:05:29.952Z,7.57
2018-12-29T04:07:58.653Z,6.43
2018-12-29T04:10:27.373Z,6.93
2018-12-29T04:12:56.080Z,7.43
2018-12-29T04:15:24.766Z,7.27
2018-12-29T04:17:53.802Z,7.83
2018-12-29T04:20:22.519Z,7.20
2018-12-29T04:22:51.222Z,8.77
2018-12-29T04:25:21.593Z,9.23
2018-12-29T04:27:50.284Z,7.27
2018-12-29T04:30:19.044Z,7.70
2018-12-29T04:32:47.824Z,5.73
2018-12-29T04:35:16.535Z,6.83
2018-12-29T04:37:45.257Z,7.20
2018-12-29T04:40:13.952Z,6.53
2018-12-29T04:42:42.717Z,8.60
2018-12-29T04:45:11.437Z,7.07
2018-12-29T04:47:40.154Z,8.80
2018-12-29T04:50:08.880Z,6.97
2018-12-29T04:52:37.652Z,8.93
2018-12-29T04:55:06.448Z,6.47
2018-12-29T04:57:35.213Z,7.47
2018-12-29T05:00:04.082Z,7.17
2018-12-29T05:02:32.797Z,8.90
2018-12-29T05:05:01.807Z,7.17
2018-12-29T05:07:30.518Z,6.93
2018-12-29T05:09:59.239Z,7.17
2018-12-29T05:12:28.278Z,8.60
2018-12-29T05:14:56.904Z,7.37
2018-12-29T05:17:25.599Z,6.27
2018-12-29T05:19:54.400Z,6.87
2018-12-29T05:22:23.169Z,8.00
2018-12-29T05:24:51.880Z,6.33
2018-12-29T05:27:20.627Z,7.93
2018-12-29T05:29:49.346Z,7.17
2018-12-29T05:32:17.976Z,6.17
2018-12-29T05:34:46.715Z,5.07
2018-12-29T05:37:15.485Z,5.30
2018-12-29T05:39:44.247Z,7.20
2018-12-29T05:42:13.244Z,6.80
2018-12-29T05:44:42.026Z,5.63
2018-12-29T05:47:10.737Z,5.67
2018-12-29T05:49:39.471Z,5.13
2018-12-29T05:52:08.211Z,5.67
2018-12-29T05:54:36.909Z,5.80
2018-12-29T05:57:05.672Z,6.27
2018-12-29T05:59:34.376Z,3.67
2018-12-29T06:02:03.074Z,5.50
2018-12-29T06:04:31.807Z,5.53
2018-12-29T06:07:00.532Z,4.37
2018-12-29T06:09:29.219Z,4.17
2018-12-29T06:11:57.927Z,6.13
2018-12-29T06:14:26.636Z,7.77
2018-12-29T06:16:55.351Z,4.50
2018-12-29T06:19:24.102Z,5.53
2018-12-29T06:21:52.856Z,4.17
2018-12-29T06:24:21.492Z,3.90
2018-12-29T06:26:50.135Z,5.47
2018-12-29T06:29:18.922Z,3.83
2018-12-29T06:31:47.624Z,4.60
2018-12-29T06:34:16.343Z,4.53
2018-12-29T06:36:45.108Z,5.03
2018-12-29T06:39:13.829Z,4.60
2018-12-29T06:41:42.540Z,4.00
2018-12-29T06:44:11.266Z,3.93
2018-12-29T06:46:40.037Z,3.80
2018-12-29T06:49:08.810Z,5.53
2018-12-29T06:51:39.117Z,7.13
2018-12-29T06:54:07.981Z,5.33
2018-12-29T06:56:36.714Z,7.13
2018-12-29T06:59:05.480Z,5.90
2018-12-29T07:01:34.189Z,5.07
2018-12-29T07:04:04.016Z,6.67
2018-12-29T07:06:32.781Z,7.47
2018-12-29T07:09:01.542Z,4.87
2018-12-29T07:11:30.261Z,4.20
2018-12-29T07:13:58.958Z,3.93
2018-12-29T07:16:27.734Z,4.53
2018-12-29T07:18:56.447Z,4.43
2018-12-29T07:21:25.150Z,4.23
2018-12-29T07:23:57.030Z,5.37
2018-12-29T07:26:25.754Z,4.57
2018-12-29T07:28:54.458Z,5.47
2018-12-29T07:31:23.161Z,3.83
2018-12-29T07:33:51.893Z,6.53
2018-12-29T07:36:21.058Z,4.23
2018-12-29T07:38:49.818Z,7.70
2018-12-29T07:41:18.594Z,5.47
2018-12-29T07:43:47.301Z,3.93
2018-12-29T07:46:16.025Z,6.33
2018-12-29T07:48:44.791Z,4.83
2018-12-29T07:51:13.511Z,7.17
2018-12-29T07:53:42.255Z,6.00
2018-12-29T07:56:11.138Z,4.20
2018-12-29T07:58:39.931Z,4.00
2018-12-29T08:01:08.620Z,6.47
2018-12-29T08:03:37.774Z,5.93
2018-12-29T08:06:06.532Z,5.80
2018-12-29T08:08:35.234Z,3.77
2018-12-29T08:11:03.958Z,5.60
2018-12-29T08:13:32.675Z,4.40
2018-12-29T08:16:01.479Z,4.27
2018-12-29T08:18:30.260Z,4.63
2018-12-29T08:20:59.050Z,7.07
2018-12-29T08:23:27.735Z,7.40
2018-12-29T08:25:56.450Z,6.20
2018-12-29T08:28:25.175Z,5.77
2018-12-29T08:30:53.887Z,7.83
2018-12-29T08:33:22.613Z,3.63
2018-12-29T08:35:51.371Z,65.57
2018-12-29T08:38:20.086Z,59.80
2018-12-29T08:40:48.825Z,16.43
2018-12-29T08:43:17.477Z,5.03
2018-12-29T08:45:46.297Z,4.03
2018-12-29T08:48:15.072Z,5.07
2018-12-29T08:50:43.875Z,5.27
2018-12-29T08:53:12.586Z,6.80
2018-12-29T08:55:41.332Z,4.20
2018-12-29T08:58:10.058Z,5.80
2018-12-29T09:00:38.787Z,4.53
2018-12-29T09:03:07.525Z,4.50
2018-12-29T09:05:36.292Z,7.30
2018-12-29T09:08:05.067Z,5.60
2018-12-29T09:10:33.877Z,3.97
2018-12-29T09:13:02.599Z,3.10
2018-12-29T09:15:31.424Z,5.00
2018-12-29T09:18:00.142Z,15.50
2018-12-29T09:20:28.923Z,5.80
2018-12-29T09:22:57.656Z,12.30
2018-12-29T09:25:26.373Z,5.80
2018-12-29T09:27:55.155Z,3.47
2018-12-29T09:30:23.916Z,3.93
2018-12-29T09:32:52.633Z,6.80
2018-12-29T09:35:21.389Z,6.43
2018-12-29T09:37:50.076Z,8.07
2018-12-29T09:40:18.833Z,7.83
2018-12-29T09:42:47.609Z,8.47
2018-12-29T09:45:16.306Z,4.63
2018-12-29T09:47:45.005Z,3.70
2018-12-29T09:50:13.801Z,8.00
2018-12-29T09:52:42.554Z,3.53
2018-12-29T09:55:11.269Z,5.53
2018-12-29T09:57:40.062Z,2.80
2018-12-29T10:00:09.097Z,3.20
2018-12-29T10:02:37.886Z,4.50
2018-12-29T10:05:06.580Z,4.57
2018-12-29T10:07:35.287Z,3.33
2018-12-29T10:10:04.483Z,6.00
2018-12-29T10:12:33.183Z,5.33
2018-12-29T10:15:01.962Z,4.40
2018-12-29T10:17:30.676Z,5.37
2018-12-29T10:19:59.440Z,9.03
2018-12-29T10:22:28.163Z,10.47
2018-12-29T10:24:56.886Z,6.43
2018-12-29T10:27:25.580Z,9.90
2018-12-29T10:29:54.369Z,4.37
2018-12-29T10:32:23.092Z,3.53
2018-12-29T10:34:51.792Z,3.27
2018-12-29T10:37:20.552Z,6.27
2018-12-29T10:39:49.262Z,4.97
2018-12-29T10:42:18.072Z,3.97
2018-12-29T10:44:46.773Z,4.83
2018-12-29T10:47:15.528Z,4.43
2018-12-29T10:49:44.243Z,4.27
2018-12-29T10:52:12.937Z,3.50
2018-12-29T10:54:41.699Z,4.37
2018-12-29T10:57:10.419Z,6.67
2018-12-29T10:59:39.126Z,3.67
2018-12-29T11:02:07.838Z,3.00
2018-12-29T11:04:36.557Z,6.03
2018-12-29T11:07:05.327Z,6.37
2018-12-29T11:09:34.053Z,6.77
2018-12-29T11:12:02.778Z,6.23
2018-12-29T11:14:31.568Z,15.20
2018-12-29T11:17:00.330Z,5.83
2018-12-29T11:19:29.107Z,10.07
2018-12-29T11:21:57.837Z,4.53
2018-12-29T11:24:26.616Z,4.10
2018-12-29T11:26:55.323Z,4.10
2018-12-29T11:29:24.038Z,8.20
2018-12-29T11:31:52.718Z,4.57
2018-12-29T11:34:21.479Z,4.07
2018-12-29T11:36:50.192Z,7.07
2018-12-29T11:39:18.916Z,10.70
2018-12-29T11:41:47.651Z,4.30
2018-12-29T11:44:16.346Z,3.57
2018-12-29T11:46:45.370Z,3.37
2018-12-29T11:49:18.063Z,4.43
2018-12-29T11:51:44.451Z,7.60
2018-12-29T11:54:13.170Z,5.50
2018-12-29T11:56:41.884Z,7.03
2018-12-29T11:59:10.814Z,5.13
2018-12-29T12:01:39.507Z,5.13
2018-12-29T12:04:08.404Z,8.70
2018-12-29T12:06:37.181Z,5.87
2018-12-29T12:09:07.253Z,7.53
2018-12-29T12:11:35.976Z,3.93
2018-12-29T12:14:04.817Z,6.20
2018-12-29T12:16:33.512Z,4.97
2018-12-29T12:19:02.232Z,18.10
2018-12-29T12:21:30.957Z,21.87
2018-12-29T12:23:59.661Z,42.63
2018-12-29T12:26:28.371Z,7.60
2018-12-29T12:28:57.137Z,5.07
2018-12-29T12:31:26.151Z,3.30
2018-12-29T12:33:54.860Z,7.03
2018-12-29T12:36:23.613Z,4.93
2018-12-29T12:38:52.350Z,7.73
2018-12-29T12:41:21.525Z,16.93
2018-12-29T12:43:50.333Z,44.13
2018-12-29T12:46:19.150Z,5.43
2018-12-29T12:48:48.257Z,44.07
2018-12-29T12:51:17.056Z,5.30
2018-12-29T12:53:45.781Z,32.23
2018-12-29T12:56:14.469Z,12.47
2018-12-29T12:58:43.329Z,8.37
2018-12-29T13:01:12.463Z,7.23
2018-12-29T13:03:41.176Z,14.87
2018-12-29T13:06:09.901Z,12.00
2018-12-29T13:08:38.615Z,5.00
2018-12-29T13:11:07.339Z,7.90
2018-12-29T13:13:36.091Z,5.63
2018-12-29T13:16:04.801Z,6.67
2018-12-29T13:18:33.500Z,9.77
2018-12-29T13:21:03.033Z,8.30
2018-12-29T13:23:31.867Z,7.37
2018-12-29T13:26:00.559Z,10.93
2018-12-29T13:28:29.281Z,8.43
2018-12-29T13:30:58.000Z,7.53
2018-12-29T13:33:26.706Z,10.60
2018-12-29T13:35:55.411Z,8.30
2018-12-29T13:38:24.126Z,5.83
2018-12-29T13:40:52.885Z,5.97
2018-12-29T13:43:21.554Z,6.33
2018-12-29T13:45:50.344Z,6.07
2018-12-29T13:48:20.808Z,5.27
2018-12-29T13:50:49.613Z,4.10
2018-12-29T13:53:18.330Z,5.97
2018-12-29T13:55:47.136Z,5.10
2018-12-29T13:58:15.905Z,4.43
2018-12-29T14:00:45.998Z,6.03
2018-12-29T14:03:14.768Z,4.57
2018-12-29T14:05:43.527Z,5.57
2018-12-29T14:08:12.306Z,9.43
2018-12-29T14:10:41.082Z,9.63
2018-12-29T14:13:09.797Z,6.17
2018-12-29T14:15:38.539Z,19.50
2018-12-29T14:18:07.279Z,8.60
2018-12-29T14:20:36.047Z,3.93
2018-12-29T14:23:04.813Z,5.20
2018-12-29T14:25:33.519Z,7.97
2018-12-29T14:28:02.302Z,10.03
2018-12-29T14:30:31.069Z,8.03
2018-12-29T14:32:59.783Z,8.03
2018-12-29T14:35:28.534Z,8.27
2018-12-29T14:37:57.358Z,9.90
2018-12-29T14:40:26.099Z,4.73
2018-12-29T14:42:54.878Z,24.20
2018-12-29T14:45:23.604Z,15.97
2018-12-29T14:47:52.392Z,20.50
2018-12-29T14:50:21.576Z,5.80
2018-12-29T14:52:50.327Z,7.43
2018-12-29T14:55:19.033Z,20.97
2018-12-29T14:57:47.786Z,6.30
2018-12-29T15:00:16.563Z,5.93
2018-12-29T15:02:45.713Z,5.60
2018-12-29T15:05:14.395Z,17.07
2018-12-29T15:07:43.168Z,5.20
2018-12-29T15:10:11.964Z,5.93
2018-12-29T15:12:40.674Z,79.40
2018-12-29T15:15:09.796Z,6.70
2018-12-29T15:17:38.506Z,6.20
2018-12-29T15:20:07.802Z,34.20
2018-12-29T15:22:36.605Z,15.27
2018-12-29T15:25:05.725Z,6.47
2018-12-29T15:27:34.742Z,5.83
2018-12-29T15:30:03.581Z,8.17
2018-12-29T15:32:32.342Z,7.10
2018-12-29T15:35:01.311Z,5.13
2018-12-29T15:37:30.085Z,3.90
2018-12-29T15:39:58.869Z,7.03
2018-12-29T15:42:27.954Z,4.80
2018-12-29T15:44:56.676Z,6.63
2018-12-29T15:47:25.324Z,9.40
2018-12-29T15:49:54.335Z,6.87
2018-12-29T15:52:23.031Z,5.73
2018-12-29T15:54:52.008Z,5.23
2018-12-29T15:57:20.736Z,6.03
2018-12-29T15:59:51.419Z,9.53
2018-12-29T16:02:20.306Z,7.60
2018-12-29T16:04:49.423Z,8.10
2018-12-29T16:07:18.131Z,8.27
2018-12-29T16:09:46.883Z,9.97
2018-12-29T16:12:15.934Z,7.57
2018-12-29T16:14:45.843Z,8.40
2018-12-29T16:17:14.751Z,9.40
2018-12-29T16:19:43.445Z,7.90
2018-12-29T16:22:12.179Z,6.23
2018-12-29T16:24:40.887Z,9.03
2018-12-29T16:27:09.588Z,7.47
2018-12-29T16:29:38.326Z,10.27
2018-12-29T16:32:07.031Z,11.63
2018-12-29T16:34:35.743Z,11.80
2018-12-29T16:37:04.488Z,12.03
2018-12-29T16:39:33.587Z,10.10
2018-12-29T16:42:02.374Z,9.83
2018-12-29T16:44:31.089Z,11.77
2018-12-29T16:46:59.838Z,10.47
2018-12-29T16:49:28.905Z,11.83
2018-12-29T16:51:57.618Z,11.63
2018-12-29T16:54:26.340Z,10.40
2018-12-29T16:56:55.047Z,10.93
2018-12-29T16:59:23.983Z,11.67
2018-12-29T17:01:52.684Z,13.77
2018-12-29T17:04:21.480Z,14.40
2018-12-29T17:06:50.198Z,11.63
2018-12-29T17:09:19.609Z,13.90
2018-12-29T17:11:52.242Z,14.00
2018-12-29T17:14:18.685Z,14.80
2018-12-29T17:16:47.419Z,13.80
2018-12-29T17:19:16.505Z,13.87
2018-12-29T17:21:45.286Z,15.50
2018-12-29T17:24:14.001Z,11.97
2018-12-29T17:26:42.721Z,14.03
2018-12-29T17:29:11.410Z,15.97
2018-12-29T17:31:40.197Z,18.47
2018-12-29T17:34:09.335Z,18.43
2018-12-29T17:36:41.888Z,14.73
2018-12-29T17:39:08.497Z,21.63
2018-12-29T17:41:37.241Z,15.77
2018-12-29T17:44:08.699Z,11.93
2018-12-29T17:46:37.485Z,19.63
2018-12-29T17:49:06.493Z,22.63
2018-12-29T17:51:35.295Z,15.27
2018-12-29T17:54:04.008Z,19.43
2018-12-29T17:56:33.135Z,19.93
2018-12-29T17:59:02.020Z,12.53
2018-12-29T18:01:30.778Z,16.63
2018-12-29T18:03:59.495Z,13.93
2018-12-29T18:06:28.208Z,15.37
2018-12-29T18:08:57.271Z,40.00
2018-12-29T18:11:25.986Z,26.97
2018-12-29T18:13:54.727Z,22.37
2018-12-29T18:16:23.840Z,27.57
2018-12-29T18:18:52.563Z,23.03
2018-12-29T18:21:21.357Z,40.50
2018-12-29T18:23:50.126Z,16.27
2018-12-29T18:26:19.525Z,13.43
2018-12-29T18:28:48.782Z,19.90
2018-12-29T18:31:17.513Z,18.53
2018-12-29T18:33:46.253Z,15.10
2018-12-29T18:36:15.050Z,15.53
2018-12-29T18:38:44.157Z,15.50
2018-12-29T18:41:12.919Z,18.50
2018-12-29T18:43:41.643Z,12.47
2018-12-29T18:46:10.373Z,25.17
2018-12-29T18:48:39.075Z,14.13
2018-12-29T18:51:07.808Z,19.77
2018-12-29T18:53:36.551Z,25.07
2018-12-29T18:56:05.253Z,28.70
2018-12-29T18:58:34.715Z,22.60
2018-12-29T19:01:03.432Z,48.27
2018-12-29T19:03:32.214Z,28.63
2018-12-29T19:06:01.111Z,18.83
2018-12-29T19:08:29.833Z,34.20
2018-12-29T19:10:58.578Z,16.10
2018-12-29T19:13:27.533Z,23.63
2018-12-29T19:15:56.544Z,30.03
2018-12-29T19:18:25.273Z,25.03
2018-12-29T19:20:53.999Z,15.20
2018-12-29T19:23:23.119Z,42.57
2018-12-29T19:25:52.182Z,20.40
2018-12-29T19:28:21.249Z,16.10
2018-12-29T19:30:49.974Z,18.60
2018-12-29T19:33:18.988Z,15.63
2018-12-29T19:35:48.087Z,19.27
2018-12-29T19:38:17.143Z,75.43
2018-12-29T19:40:46.266Z,38.43
2018-12-29T19:43:15.315Z,36.77
2018-12-29T19:45:44.028Z,20.37
2018-12-29T19:48:12.816Z,22.60
2018-12-29T19:50:41.525Z,19.10
2018-12-29T19:53:10.615Z,20.87
2018-12-29T19:55:39.329Z,21.17
2018-12-29T19:58:08.109Z,16.33
2018-12-29T20:00:37.117Z,19.93
2018-12-29T20:03:06.142Z,27.20
2018-12-29T20:05:35.319Z,22.07
2018-12-29T20:08:05.662Z,20.87
2018-12-29T20:10:34.425Z,18.83
2018-12-29T20:13:03.895Z,20.20
2018-12-29T20:15:32.678Z,26.83
2018-12-29T20:18:01.465Z,18.00
2018-12-29T20:20:30.208Z,15.30
2018-12-29T20:22:59.000Z,18.13
2018-12-29T20:25:30.605Z,16.13
2018-12-29T20:27:59.343Z,16.40
2018-12-29T20:30:28.095Z,19.03
2018-12-29T20:32:59.090Z,27.00
2018-12-29T20:35:27.314Z,25.43
2018-12-29T20:37:56.436Z,20.03
2018-12-29T20:40:25.161Z,20.17
2018-12-29T20:42:53.941Z,27.87
2018-12-29T20:45:22.707Z,16.90
2018-12-29T20:47:51.528Z,32.50
2018-12-29T20:50:20.330Z,32.03
2018-12-29T20:52:49.111Z,16.67
2018-12-29T20:55:17.834Z,16.10
2018-12-29T20:57:46.625Z,28.83
2018-12-29T21:00:15.390Z,20.30
2018-12-29T21:02:44.239Z,21.03
2018-12-29T21:05:13.656Z,28.20
2018-12-29T21:07:42.350Z,21.27
2018-12-29T21:10:11.059Z,24.77
2018-12-29T21:12:39.893Z,47.23
2018-12-29T21:15:08.694Z,37.37
2018-12-29T21:17:37.411Z,49.43
2018-12-29T21:20:07.239Z,31.87
2018-12-29T21:22:35.939Z,22.40
2018-12-29T21:25:05.170Z,59.23
2018-12-29T21:27:33.905Z,19.53
2018-12-29T21:30:02.699Z,23.33
2018-12-29T21:32:31.448Z,52.30
2018-12-29T21:35:00.345Z,28.80
2018-12-29T21:37:29.095Z,67.90
2018-12-29T21:39:57.782Z,29.07
2018-12-29T21:42:26.600Z,25.27
2018-12-29T21:44:55.817Z,40.43
2018-12-29T21:47:24.515Z,42.27
2018-12-29T21:49:53.228Z,62.23
2018-12-29T21:52:21.954Z,37.67
2018-12-29T21:54:50.723Z,54.67
2018-12-29T21:57:19.452Z,125.80
2018-12-29T21:59:48.239Z,78.63
2018-12-29T22:02:17.024Z,24.37
2018-12-29T22:04:45.823Z,39.20
2018-12-29T22:07:14.546Z,71.60
2018-12-29T22:09:43.385Z,59.53
2018-12-29T22:12:12.514Z,48.43
2018-12-29T22:14:41.236Z,26.77
2018-12-29T22:17:10.007Z,47.03
2018-12-29T22:19:38.796Z,14.43
2018-12-29T22:22:07.596Z,19.23
2018-12-29T22:24:36.328Z,19.13
2018-12-29T22:27:05.134Z,45.67
2018-12-29T22:29:33.859Z,18.60
2018-12-29T22:32:02.654Z,16.07
2018-12-29T22:34:31.470Z,25.47
2018-12-29T22:37:00.390Z,17.40
2018-12-29T22:39:29.470Z,16.27
2018-12-29T22:41:58.211Z,24.57
2018-12-29T22:44:26.850Z,22.50
2018-12-29T22:46:55.659Z,12.87
2018-12-29T22:49:24.406Z,11.47
2018-12-29T22:51:53.106Z,23.37
2018-12-29T22:54:21.885Z,37.77
2018-12-29T22:56:50.871Z,31.20
2018-12-29T22:59:19.672Z,49.80
2018-12-29T23:01:48.403Z,63.03
2018-12-29T23:04:17.140Z,21.83
2018-12-29T23:06:45.842Z,15.97
2018-12-29T23:09:14.969Z,21.07
2018-12-29T23:11:43.755Z,32.90
2018-12-29T23:14:12.474Z,12.80
2018-12-29T23:16:41.264Z,65.40
2018-12-29T23:19:10.031Z,66.00
2018-12-29T23:21:39.780Z,70.43
2018-12-29T23:24:08.714Z,48.80
2018-12-29T23:26:37.414Z,59.27
2018-12-29T23:29:06.347Z,34.80
2018-12-29T23:31:35.068Z,25.33
2018-12-29T23:34:03.826Z,43.93
2018-12-29T23:36:32.574Z,86.37
2018-12-29T23:39:01.370Z,15.10
2018-12-29T23:41:30.068Z,58.87
2018-12-29T23:43:58.865Z,60.67
2018-12-29T23:46:27.597Z,28.97
2018-12-29T23:48:56.324Z,26.97
2018-12-29T23:51:25.048Z,131.30
2018-12-29T23:53:53.779Z,47.93
2018-12-29T23:56:22.785Z,109.37
2018-12-29T23:58:51.570Z,66.67
